createdAt,value
2019-02-28T00:05:20.253Z,45.80
2019-02-28T00:08:05.282Z,48.23
2019-02-28T00:10:49.157Z,49.33
2019-02-28T00:13:34.028Z,50.80
2019-02-28T00:16:20.628Z,51.20
2019-02-28T00:19:04.381Z,55.63
2019-02-28T00:21:48.944Z,53.47
2019-02-28T00:24:33.171Z,53.47
2019-02-28T00:27:20.957Z,54.33
2019-02-28T00:30:05.959Z,56.37
2019-02-28T00:32:51.126Z,55.73
2019-02-28T00:35:35.343Z,57.97
2019-02-28T00:38:19.147Z,53.40
2019-02-28T00:41:03.020Z,52.77
2019-02-28T00:46:51.321Z,51.63
2019-02-28T00:49:35.956Z,52.60
2019-02-28T00:52:19.711Z,49.90
2019-02-28T00:55:04.284Z,55.37
2019-02-28T00:57:49.231Z,52.57
2019-02-28T01:00:37.206Z,51.40
2019-02-28T01:03:19.319Z,58.47
2019-02-28T01:06:04.044Z,53.30
2019-02-28T01:08:48.220Z,56.30
2019-02-28T01:11:32.807Z,64.15
2019-02-28T01:14:16.617Z,60.47
2019-02-28T01:17:01.687Z,56.60
2019-02-28T01:19:47.258Z,57.53
2019-02-28T01:22:31.776Z,58.25
2019-02-28T01:25:17.572Z,58.90
2019-02-28T01:28:02.007Z,63.15
2019-02-28T01:30:46.679Z,60.43
2019-02-28T01:33:30.877Z,59.63
2019-02-28T01:36:15.653Z,61.87
2019-02-28T01:39:03.816Z,63.07
2019-02-28T01:42:01.059Z,66.10
2019-02-28T01:44:45.349Z,63.47
2019-02-28T01:47:29.612Z,63.63
2019-02-28T01:50:16.345Z,61.47
2019-02-28T01:53:00.952Z,65.47
2019-02-28T01:55:44.818Z,64.87
2019-02-28T01:58:29.310Z,65.60
2019-02-28T02:01:13.908Z,67.13
2019-02-28T02:03:58.428Z,65.83
2019-02-28T02:06:42.366Z,65.63
2019-02-28T02:09:28.145Z,64.35
2019-02-28T02:12:13.563Z,70.90
2019-02-28T02:14:58.184Z,68.25
2019-02-28T02:17:42.897Z,64.60
2019-02-28T02:20:27.499Z,64.70
2019-02-28T02:23:11.439Z,65.67
2019-02-28T02:25:57.592Z,69.97
2019-02-28T02:28:41.910Z,70.80
2019-02-28T02:31:28.927Z,72.00
2019-02-28T02:34:11.890Z,69.97
2019-02-28T02:36:44.280Z,74.32
2019-02-28T02:39:28.477Z,69.80
2019-02-28T02:42:13.339Z,68.00
2019-02-28T02:44:57.254Z,70.80
2019-02-28T02:47:45.975Z,74.20
2019-02-28T02:50:35.733Z,71.73
2019-02-28T02:53:19.013Z,68.70
2019-02-28T02:56:04.924Z,75.20
2019-02-28T02:58:48.877Z,73.87
2019-02-28T03:01:35.312Z,73.87
2019-02-28T03:04:22.878Z,72.35
2019-02-28T03:07:07.204Z,76.57
2019-02-28T03:09:51.580Z,72.17
2019-02-28T03:12:38.303Z,66.23
2019-02-28T03:15:26.878Z,76.20
2019-02-28T03:18:09.002Z,71.00
2019-02-28T03:20:53.921Z,73.17
2019-02-28T03:23:40.143Z,72.63
2019-02-28T03:26:23.356Z,77.03
2019-02-28T03:29:08.940Z,70.57
2019-02-28T03:31:56.433Z,78.50
2019-02-28T03:34:39.269Z,75.33
2019-02-28T03:37:32.843Z,79.47
2019-02-28T03:40:25.286Z,78.63
2019-02-28T03:43:09.504Z,74.33
2019-02-28T03:45:54.424Z,77.87
2019-02-28T03:48:38.434Z,77.97
2019-02-28T03:51:22.264Z,76.73
2019-02-28T03:54:07.185Z,76.97
2019-02-28T03:56:53.335Z,74.83
2019-02-28T03:59:37.539Z,75.47
2019-02-28T04:02:22.534Z,77.03
2019-02-28T04:05:06.720Z,76.80
2019-02-28T04:07:53.520Z,75.83
2019-02-28T04:10:36.566Z,75.80
2019-02-28T04:13:26.585Z,74.90
2019-02-28T04:16:10.817Z,73.77
2019-02-28T04:18:54.744Z,77.87
2019-02-28T04:21:38.881Z,75.00
2019-02-28T04:24:22.644Z,74.30
2019-02-28T04:27:07.926Z,77.37
2019-02-28T04:29:51.777Z,74.57
2019-02-28T04:32:36.803Z,73.17
2019-02-28T04:35:25.279Z,82.83
2019-02-28T04:38:06.995Z,83.40
2019-02-28T04:40:51.774Z,81.65
2019-02-28T04:43:35.611Z,81.23
2019-02-28T04:46:19.526Z,86.95
2019-02-28T04:49:03.936Z,80.23
2019-02-28T04:51:47.864Z,79.20
2019-02-28T04:54:31.388Z,79.57
2019-02-28T04:57:17.301Z,76.83
2019-02-28T05:00:00.881Z,79.50
2019-02-28T05:02:33.153Z,77.57
2019-02-28T05:05:17.245Z,83.33
2019-02-28T05:08:05.562Z,78.92
2019-02-28T05:10:49.304Z,79.17
2019-02-28T05:13:34.164Z,78.12
2019-02-28T05:16:17.730Z,77.97
2019-02-28T05:19:02.374Z,85.00
2019-02-28T05:21:50.624Z,89.87
2019-02-28T05:24:34.997Z,82.10
2019-02-28T05:27:19.358Z,81.33
2019-02-28T05:30:02.988Z,71.00
2019-02-28T05:32:49.606Z,83.20
2019-02-28T05:35:33.093Z,85.07
2019-02-28T05:38:20.642Z,79.33
2019-02-28T05:41:03.982Z,81.67
2019-02-28T05:43:49.872Z,83.90
2019-02-28T05:46:34.640Z,79.17
2019-02-28T05:49:19.094Z,87.77
2019-02-28T05:54:50.289Z,83.37
2019-02-28T05:57:33.277Z,87.37
2019-02-28T06:00:18.849Z,86.75
2019-02-28T06:03:03.936Z,87.33
2019-02-28T06:05:48.052Z,86.10
2019-02-28T06:08:32.382Z,88.00
2019-02-28T06:13:49.611Z,92.37
2019-02-28T06:16:48.320Z,89.10
2019-02-28T06:19:34.196Z,90.87
2019-02-28T06:22:19.077Z,87.72
2019-02-28T06:25:03.852Z,93.77
2019-02-28T06:27:50.460Z,98.12
2019-02-28T06:30:33.810Z,98.33
2019-02-28T06:33:21.105Z,97.02
2019-02-28T06:36:04.658Z,98.10
2019-02-28T06:38:51.495Z,98.37
2019-02-28T06:41:39.989Z,98.53
2019-02-28T06:44:27.059Z,105.87
2019-02-28T06:47:11.309Z,104.20
2019-02-28T06:49:56.251Z,105.70
2019-02-28T06:52:40.162Z,106.53
2019-02-28T06:55:25.242Z,114.87
2019-02-28T06:58:08.932Z,114.63
2019-02-28T07:00:53.168Z,116.70
2019-02-28T07:03:38.791Z,122.30
2019-02-28T07:06:11.285Z,113.93
2019-02-28T07:08:55.146Z,124.50
2019-02-28T07:11:39.301Z,126.93
2019-02-28T07:14:22.938Z,132.20
2019-02-28T07:17:10.738Z,132.07
2019-02-28T07:19:54.832Z,134.60
2019-02-28T07:22:41.266Z,136.13
2019-02-28T07:28:30.057Z,137.97
2019-02-28T07:31:14.185Z,138.90
2019-02-28T07:33:58.255Z,125.37
2019-02-28T07:36:45.747Z,140.30
2019-02-28T07:39:29.904Z,140.47
2019-02-28T07:42:13.906Z,145.57
2019-02-28T07:44:58.976Z,145.55
2019-02-28T07:47:43.155Z,144.53
2019-02-28T07:50:27.406Z,146.57
2019-02-28T07:53:12.745Z,134.07
2019-02-28T07:55:58.451Z,136.28
2019-02-28T07:58:42.081Z,142.27
2019-02-28T08:01:28.547Z,153.07
2019-02-28T08:04:17.878Z,141.07
2019-02-28T08:07:00.726Z,143.47
2019-02-28T08:09:45.619Z,137.23
2019-02-28T08:12:31.375Z,134.27
2019-02-28T08:15:21.132Z,143.37
2019-02-28T08:17:50.905Z,148.67
2019-02-28T08:20:35.022Z,151.57
2019-02-28T08:23:19.952Z,135.90
2019-02-28T08:25:52.396Z,154.10
2019-02-28T08:28:39.018Z,154.40
2019-02-28T08:31:23.148Z,149.18
2019-02-28T08:34:10.223Z,154.87
2019-02-28T08:36:54.343Z,150.80
2019-02-28T08:39:41.198Z,136.00
2019-02-28T08:42:24.098Z,131.87
2019-02-28T08:45:10.777Z,127.33
2019-02-28T08:47:56.779Z,131.23
2019-02-28T08:50:29.229Z,134.47
2019-02-28T08:53:15.378Z,134.03
2019-02-28T08:55:57.902Z,127.20
2019-02-28T08:58:42.834Z,136.50
2019-02-28T09:01:27.427Z,118.63
2019-02-28T09:04:11.568Z,129.07
2019-02-28T09:06:55.547Z,126.63
2019-02-28T09:09:39.299Z,121.07
2019-02-28T09:12:24.014Z,130.40
2019-02-28T09:15:08.128Z,113.40
2019-02-28T09:17:51.885Z,122.97
2019-02-28T09:20:36.683Z,118.67
2019-02-28T09:23:20.140Z,109.17
2019-02-28T09:26:03.752Z,115.22
2019-02-28T09:28:48.291Z,115.17
2019-02-28T09:31:38.819Z,108.12
2019-02-28T09:34:18.831Z,98.43
2019-02-28T09:36:55.264Z,86.32
2019-02-28T09:39:51.206Z,87.00
2019-02-28T09:42:35.840Z,84.47
2019-02-28T09:45:20.088Z,76.87
2019-02-28T09:48:05.030Z,78.50
2019-02-28T09:50:48.848Z,71.70
2019-02-28T09:53:33.006Z,65.87
2019-02-28T09:56:17.272Z,67.10
2019-02-28T09:59:03.246Z,66.47
2019-02-28T10:01:35.993Z,66.90
2019-02-28T10:04:20.261Z,64.60
2019-02-28T10:07:04.145Z,55.20
2019-02-28T10:09:49.288Z,59.87
2019-02-28T10:12:33.915Z,56.03
2019-02-28T10:15:19.036Z,60.90
2019-02-28T10:18:04.245Z,59.47
2019-02-28T10:20:37.141Z,59.53
2019-02-28T10:23:22.208Z,51.47
2019-02-28T10:26:06.003Z,51.97
2019-02-28T10:28:50.745Z,49.38
2019-02-28T10:31:38.342Z,48.53
2019-02-28T10:34:23.453Z,44.97
2019-02-28T10:37:08.067Z,49.20
2019-02-28T10:39:52.683Z,48.50
2019-02-28T10:42:37.024Z,41.65
2019-02-28T10:45:22.333Z,42.93
2019-02-28T10:48:08.010Z,43.90
2019-02-28T10:50:51.258Z,46.40
2019-02-28T10:53:36.299Z,44.33
2019-02-28T10:56:21.220Z,44.80
2019-02-28T10:59:04.863Z,46.77
2019-02-28T11:01:49.107Z,41.37
2019-02-28T11:04:33.283Z,45.07
2019-02-28T11:07:17.296Z,42.80
2019-02-28T11:10:02.004Z,46.90
2019-02-28T11:12:45.816Z,41.83
2019-02-28T11:15:30.436Z,44.77
2019-02-28T11:18:14.557Z,45.15
2019-02-28T11:20:59.329Z,43.30
2019-02-28T11:23:46.515Z,39.43
2019-02-28T11:26:29.119Z,42.40
2019-02-28T11:29:12.820Z,42.37
2019-02-28T11:31:46.491Z,45.90
2019-02-28T11:34:30.824Z,42.90
2019-02-28T11:37:05.460Z,54.73
2019-02-28T11:40:02.079Z,51.60
2019-02-28T11:42:52.313Z,53.68
2019-02-28T11:45:40.762Z,55.63
2019-02-28T11:48:25.734Z,60.03
2019-02-28T11:51:14.568Z,47.23
2019-02-28T11:53:57.402Z,46.53
2019-02-28T11:56:41.520Z,45.47
2019-02-28T11:59:29.548Z,43.63
2019-02-28T12:02:14.089Z,41.03
2019-02-28T12:04:57.853Z,49.70
2019-02-28T12:07:42.719Z,49.67
2019-02-28T12:10:27.902Z,43.40
2019-02-28T12:13:12.470Z,47.20
2019-02-28T12:15:56.893Z,48.13
2019-02-28T12:18:41.004Z,51.20
2019-02-28T12:21:25.590Z,54.73
2019-02-28T12:24:09.558Z,58.17
2019-02-28T12:26:53.714Z,45.80
2019-02-28T12:29:37.507Z,50.70
2019-02-28T12:32:22.976Z,49.30
2019-02-28T12:35:08.215Z,47.80
2019-02-28T12:37:53.860Z,52.00
2019-02-28T12:40:38.121Z,44.50
2019-02-28T12:43:22.132Z,45.60
2019-02-28T12:46:08.365Z,42.17
2019-02-28T12:48:52.326Z,38.53
2019-02-28T12:51:39.719Z,36.53
2019-02-28T12:54:22.682Z,34.73
2019-02-28T12:57:09.322Z,38.83
2019-02-28T12:59:53.022Z,37.07
2019-02-28T13:02:39.661Z,36.43
2019-02-28T13:05:23.895Z,39.27
2019-02-28T13:08:07.789Z,41.27
2019-02-28T13:10:42.017Z,40.13
2019-02-28T13:13:28.816Z,38.27
2019-02-28T13:16:24.521Z,40.40
2019-02-28T13:19:09.062Z,41.87
2019-02-28T13:21:53.734Z,42.65
2019-02-28T13:24:42.410Z,43.50
2019-02-28T13:27:24.423Z,41.73
2019-02-28T13:30:11.851Z,38.50
2019-02-28T13:32:56.181Z,35.03
2019-02-28T13:35:45.173Z,40.13
2019-02-28T13:38:26.056Z,43.50
2019-02-28T13:41:11.555Z,40.38
2019-02-28T13:43:59.287Z,36.53
2019-02-28T13:46:41.675Z,34.63
2019-02-28T13:49:26.108Z,33.83
2019-02-28T13:52:19.088Z,38.80
2019-02-28T13:55:01.610Z,32.60
2019-02-28T13:57:47.502Z,39.80
2019-02-28T14:00:31.977Z,36.93
2019-02-28T14:03:17.092Z,33.33
2019-02-28T14:06:02.419Z,32.63
2019-02-28T14:08:47.769Z,35.87
2019-02-28T14:11:33.013Z,35.33
2019-02-28T14:14:06.500Z,27.70
2019-02-28T14:17:03.208Z,33.03
2019-02-28T14:19:47.768Z,37.40
2019-02-28T14:22:31.656Z,34.07
2019-02-28T14:25:15.697Z,32.43
2019-02-28T14:28:00.292Z,35.63
2019-02-28T14:30:46.040Z,36.07
2019-02-28T14:33:32.211Z,32.60
2019-02-28T14:36:15.439Z,38.23
2019-02-28T14:38:59.638Z,35.23
2019-02-28T14:41:44.633Z,39.50
2019-02-28T14:44:31.561Z,44.40
2019-02-28T14:47:15.510Z,40.33
2019-02-28T14:49:59.087Z,43.13
2019-02-28T14:52:43.829Z,39.00
2019-02-28T14:55:29.246Z,35.03
2019-02-28T14:58:14.095Z,39.48
2019-02-28T15:00:58.644Z,36.73
2019-02-28T15:03:42.745Z,32.53
2019-02-28T15:06:30.799Z,40.40
2019-02-28T15:09:16.182Z,43.07
2019-02-28T15:12:00.295Z,34.97
2019-02-28T15:14:45.862Z,41.63
2019-02-28T15:17:29.485Z,42.43
2019-02-28T15:20:14.536Z,43.73
2019-02-28T15:23:00.210Z,32.03
2019-02-28T15:25:32.558Z,36.42
2019-02-28T15:28:16.984Z,32.73
2019-02-28T15:31:01.564Z,32.78
2019-02-28T15:33:45.937Z,35.40
2019-02-28T15:36:30.244Z,30.47
2019-02-28T15:39:17.168Z,40.67
2019-02-28T15:42:00.516Z,39.63
2019-02-28T15:44:44.474Z,44.57
2019-02-28T15:47:29.086Z,41.55
2019-02-28T15:50:16.358Z,40.83
2019-02-28T15:53:00.153Z,44.60
2019-02-28T15:55:46.318Z,45.97
2019-02-28T15:58:19.053Z,47.83
2019-02-28T16:01:04.968Z,47.17
2019-02-28T16:03:51.279Z,52.40
2019-02-28T16:06:23.913Z,51.67
2019-02-28T16:09:09.139Z,45.40
2019-02-28T16:11:56.569Z,51.70
2019-02-28T16:14:41.399Z,53.03
2019-02-28T16:17:28.438Z,46.17
2019-02-28T16:20:12.757Z,40.25
2019-02-28T16:22:56.757Z,43.40
2019-02-28T16:25:40.924Z,37.40
2019-02-28T16:28:25.602Z,39.80
2019-02-28T16:31:09.955Z,38.00
2019-02-28T16:33:57.764Z,38.10
2019-02-28T16:36:40.166Z,38.67
2019-02-28T16:39:12.699Z,36.76
2019-02-28T16:42:11.565Z,39.97
2019-02-28T16:44:43.686Z,36.40
2019-02-28T16:47:27.943Z,35.90
2019-02-28T16:50:12.036Z,38.60
2019-02-28T16:52:55.860Z,41.77
2019-02-28T16:55:40.712Z,34.77
2019-02-28T16:58:24.720Z,38.02
2019-02-28T17:01:08.868Z,34.37
2019-02-28T17:03:55.378Z,36.00
2019-02-28T17:06:41.939Z,38.93
2019-02-28T17:18:49.461Z,39.10
2019-02-28T17:21:33.513Z,31.57
2019-02-28T17:24:18.189Z,36.77
2019-02-28T17:27:21.660Z,30.63
2019-02-28T17:36:27.535Z,36.73
2019-02-28T17:39:17.771Z,35.17
2019-02-28T17:42:08.318Z,32.23
2019-02-28T17:45:10.109Z,33.67
2019-02-28T17:48:19.524Z,29.93
2019-02-28T17:51:25.696Z,31.27
2019-02-28T17:54:17.315Z,29.77
2019-02-28T17:57:34.812Z,32.57
2019-02-28T18:00:30.118Z,28.37
2019-02-28T18:06:43.720Z,28.80
2019-02-28T18:10:02.494Z,31.68
2019-02-28T18:13:09.219Z,33.13
2019-02-28T18:16:14.057Z,28.17
2019-02-28T18:22:42.546Z,27.97
2019-02-28T18:25:48.625Z,30.43
2019-02-28T18:28:42.215Z,27.47
2019-02-28T18:31:28.565Z,31.67
2019-02-28T18:34:20.683Z,30.80
2019-02-28T18:37:20.730Z,28.12
2019-02-28T18:40:06.794Z,37.38
2019-02-28T18:42:53.536Z,28.47
2019-02-28T18:45:38.052Z,27.83
2019-02-28T18:51:07.591Z,31.23
2019-02-28T18:53:51.951Z,31.23
2019-02-28T18:56:38.013Z,32.57
2019-02-28T18:59:21.980Z,33.73
2019-02-28T19:02:07.185Z,33.03
2019-02-28T19:04:53.836Z,31.37
2019-02-28T19:07:37.973Z,31.57
2019-02-28T19:10:10.639Z,30.25
2019-02-28T19:12:57.786Z,31.07
2019-02-28T19:15:45.076Z,38.47
2019-02-28T19:18:28.647Z,33.63
2019-02-28T19:21:14.832Z,32.97
2019-02-28T19:24:00.948Z,28.90
2019-02-28T19:26:45.660Z,31.03
2019-02-28T19:29:30.213Z,33.23
2019-02-28T19:32:15.970Z,32.43
2019-02-28T19:35:00.737Z,29.90
2019-02-28T19:37:44.452Z,33.30
2019-02-28T19:40:28.568Z,31.30
2019-02-28T19:43:13.243Z,30.77
2019-02-28T19:45:57.541Z,35.27
2019-02-28T19:48:42.996Z,33.47
2019-02-28T19:51:27.775Z,33.57
2019-02-28T19:54:12.488Z,30.37
2019-02-28T19:56:58.079Z,32.58
2019-02-28T19:59:43.680Z,29.93
2019-02-28T20:02:27.561Z,31.63
2019-02-28T20:05:16.139Z,31.70
2019-02-28T20:08:00.444Z,34.30
2019-02-28T20:10:44.377Z,29.37
2019-02-28T20:13:28.627Z,34.77
2019-02-28T20:16:12.735Z,33.85
2019-02-28T20:18:57.940Z,34.63
2019-02-28T20:21:42.739Z,28.30
2019-02-28T20:24:26.646Z,29.87
2019-02-28T20:27:11.121Z,30.57
2019-02-28T20:32:31.532Z,26.67
2019-02-28T20:35:16.051Z,33.23
2019-02-28T20:37:59.883Z,28.37
2019-02-28T20:40:43.877Z,30.10
2019-02-28T20:43:28.268Z,36.03
2019-02-28T20:46:12.544Z,34.10
2019-02-28T20:48:57.180Z,31.93
2019-02-28T20:51:29.379Z,38.33
2019-02-28T20:54:14.248Z,36.10
2019-02-28T20:56:59.037Z,33.87
2019-02-28T20:59:43.592Z,35.75
2019-02-28T21:02:27.891Z,31.03
2019-02-28T21:05:12.143Z,34.73
2019-02-28T21:07:56.767Z,36.08
2019-02-28T21:10:41.454Z,35.83
2019-02-28T21:13:25.349Z,38.80
2019-02-28T21:16:09.659Z,32.93
2019-02-28T21:18:53.896Z,35.53
2019-02-28T21:21:38.274Z,33.23
2019-02-28T21:24:10.541Z,36.23
2019-02-28T21:26:54.954Z,39.53
2019-02-28T21:29:39.954Z,39.60
2019-02-28T21:32:25.542Z,36.13
2019-02-28T21:35:10.140Z,35.73
2019-02-28T21:37:54.276Z,36.98
2019-02-28T21:40:38.414Z,36.65
2019-02-28T21:43:22.747Z,34.83
2019-02-28T21:46:07.431Z,40.90
2019-02-28T21:48:52.237Z,38.17
2019-02-28T21:51:36.785Z,38.60
2019-02-28T21:54:21.053Z,33.33
2019-02-28T21:57:05.809Z,35.40
2019-02-28T21:59:49.431Z,33.00
2019-02-28T22:02:33.895Z,37.30
2019-02-28T22:05:19.080Z,35.53
2019-02-28T22:08:03.538Z,39.37
2019-02-28T22:10:49.550Z,34.77
2019-02-28T22:13:34.227Z,32.93
2019-02-28T22:16:18.034Z,40.17
2019-02-28T22:19:01.946Z,35.70
2019-02-28T22:21:34.219Z,33.87
2019-02-28T22:24:18.705Z,29.90
2019-02-28T22:27:02.894Z,34.47
2019-02-28T22:29:48.056Z,29.87
2019-02-28T22:32:37.904Z,33.07
2019-02-28T22:35:30.337Z,32.27
2019-02-28T22:38:20.819Z,31.80
2019-02-28T22:41:05.165Z,36.17
2019-02-28T22:43:49.856Z,32.17
2019-02-28T22:46:33.807Z,32.63
2019-02-28T22:49:18.358Z,36.50
2019-02-28T22:52:03.214Z,36.50
2019-02-28T22:54:46.952Z,35.87
2019-02-28T22:57:32.153Z,30.87
2019-02-28T23:03:34.170Z,34.40
2019-02-28T23:06:18.115Z,31.80
2019-02-28T23:09:01.927Z,31.23
2019-02-28T23:11:47.910Z,29.63
2019-02-28T23:14:31.711Z,35.63
2019-02-28T23:17:18.304Z,34.33
2019-02-28T23:20:02.133Z,29.00
2019-02-28T23:22:47.904Z,31.00
2019-02-28T23:25:32.178Z,34.70
2019-02-28T23:28:23.722Z,38.53
2019-02-28T23:31:15.657Z,33.23
2019-02-28T23:34:01.552Z,34.00
2019-02-28T23:36:46.404Z,33.90
2019-02-28T23:39:30.841Z,31.15
2019-02-28T23:42:15.146Z,32.90
2019-02-28T23:44:59.315Z,36.07
2019-02-28T23:47:43.168Z,31.93
2019-02-28T23:50:28.631Z,33.67
2019-02-28T23:53:12.342Z,27.00
2019-02-28T23:55:56.637Z,31.90
2019-02-28T23:58:40.196Z,31.03
